sensor_id;sensor_type;location;lat;lon;timestamp;P1;durP1;ratioP1;P2;durP2;ratioP2
39276;SDS011;63149;48.086;-1.606;2023-03-13T06:02:06;23.88;;;6.07;;
39276;SDS011;63149;48.086;-1.606;2023-03-13T06:04:33;33.25;;;6.03;;
39276;SDS011;63149;48.086;-1.606;2023-03-13T06:07:00;27.23;;;6.38;;
39276;SDS011;63149;48.086;-1.606;2023-03-13T06:09:27;29.55;;;5.35;;
39276;SDS011;63149;48.086;-1.606;2023-03-13T06:11:54;25.02;;;5.68;;
39276;SDS011;63149;48.086;-1.606;2023-03-13T06:14:21;31.65;;;7.57;;
39276;SDS011;63149;48.086;-1.606;2023-03-13T06:16:48;30.45;;;7.43;;
39276;SDS011;63149;48.086;-1.606;2023-03-13T06:19:16;33.55;;;6.82;;
39276;SDS011;63149;48.086;-1.606;2023-03-13T06:21:44;26.75;;;6.25;;
39276;SDS011;63149;48.086;-1.606;2023-03-13T06:24:11;25.75;;;6.07;;
39276;SDS011;63149;48.086;-1.606;2023-03-13T06:26:38;35.40;;;6.18;;
39276;SDS011;63149;48.086;-1.606;2023-03-13T06:29:05;23.52;;;5.47;;
39276;SDS011;63149;48.086;-1.606;2023-03-13T06:31:32;30.17;;;6.28;;
39276;SDS011;63149;48.086;-1.606;2023-03-13T06:33:59;28.08;;;5.70;;
39276;SDS011;63149;48.086;-1.606;2023-03-13T06:36:27;28.48;;;6.28;;
39276;SDS011;63149;48.086;-1.606;2023-03-13T06:38:54;33.70;;;6.47;;
39276;SDS011;63149;48.086;-1.606;2023-03-13T06:41:21;32.22;;;5.80;;
39276;SDS011;63149;48.086;-1.606;2023-03-13T06:43:48;33.42;;;6.63;;
39276;SDS011;63149;48.086;-1.606;2023-03-13T06:46:16;46.17;;;7.32;;
39276;SDS011;63149;48.086;-1.606;2023-03-13T06:48:44;29.30;;;6.20;;
39276;SDS011;63149;48.086;-1.606;2023-03-13T06:51:11;38.03;;;6.55;;
39276;SDS011;63149;48.086;-1.606;2023-03-13T06:53:40;34.50;;;8.15;;
39276;SDS011;63149;48.086;-1.606;2023-03-13T06:56:08;31.40;;;5.85;;
39276;SDS011;63149;48.086;-1.606;2023-03-13T06:58:35;22.38;;;5.53;;
39276;SDS011;63149;48.086;-1.606;2023-03-13T07:01:04;26.42;;;5.85;;
39276;SDS011;63149;48.086;-1.606;2023-03-13T07:03:32;28.70;;;7.15;;
39276;SDS011;63149;48.086;-1.606;2023-03-13T07:05:59;25.05;;;6.05;;
39276;SDS011;63149;48.086;-1.606;2023-03-13T07:08:26;34.97;;;6.47;;
39276;SDS011;63149;48.086;-1.606;2023-03-13T07:10:57;31.35;;;6.10;;
39276;SDS011;63149;48.086;-1.606;2023-03-13T07:15:51;37.17;;;7.43;;
39276;SDS011;63149;48.086;-1.606;2023-03-13T07:18:18;28.63;;;6.28;;
39276;SDS011;63149;48.086;-1.606;2023-03-13T07:20:50;37.95;;;5.90;;
39276;SDS011;63149;48.086;-1.606;2023-03-13T07:23:18;39.50;;;7.53;;
39276;SDS011;63149;48.086;-1.606;2023-03-13T07:25:51;32.17;;;6.38;;
39276;SDS011;63149;48.086;-1.606;2023-03-13T07:28:20;38.70;;;6.22;;
39276;SDS011;63149;48.086;-1.606;2023-03-13T07:30:47;31.02;;;6.03;;
39276;SDS011;63149;48.086;-1.606;2023-03-13T07:33:14;28.25;;;6.00;;
39276;SDS011;63149;48.086;-1.606;2023-03-13T07:35:46;37.90;;;7.25;;
39276;SDS011;63149;48.086;-1.606;2023-03-13T07:38:13;40.17;;;8.55;;
39276;SDS011;63149;48.086;-1.606;2023-03-13T07:40:46;29.60;;;5.75;;
39276;SDS011;63149;48.086;-1.606;2023-03-13T07:43:14;33.13;;;6.13;;
39276;SDS011;63149;48.086;-1.606;2023-03-13T07:45:50;33.55;;;6.13;;
39276;SDS011;63149;48.086;-1.606;2023-03-13T07:48:18;27.90;;;5.40;;
39276;SDS011;63149;48.086;-1.606;2023-03-13T07:50:45;36.17;;;6.25;;
39276;SDS011;63149;48.086;-1.606;2023-03-13T07:53:12;36.90;;;6.00;;
39276;SDS011;63149;48.086;-1.606;2023-03-13T07:55:50;45.30;;;7.78;;
39276;SDS011;63149;48.086;-1.606;2023-03-13T07:58:21;31.42;;;5.82;;
39276;SDS011;63149;48.086;-1.606;2023-03-13T08:00:49;31.55;;;5.78;;
39276;SDS011;63149;48.086;-1.606;2023-03-13T08:03:17;38.95;;;6.72;;
39276;SDS011;63149;48.086;-1.606;2023-03-13T08:05:44;36.55;;;5.80;;
39276;SDS011;63149;48.086;-1.606;2023-03-13T08:08:11;30.70;;;5.55;;
39276;SDS011;63149;48.086;-1.606;2023-03-13T08:10:38;36.85;;;7.05;;
39276;SDS011;63149;48.086;-1.606;2023-03-13T08:13:05;37.03;;;6.50;;
39276;SDS011;63149;48.086;-1.606;2023-03-13T08:15:31;25.95;;;5.82;;
39276;SDS011;63149;48.086;-1.606;2023-03-13T08:18:00;40.03;;;5.55;;
39276;SDS011;63149;48.086;-1.606;2023-03-13T08:20:27;27.35;;;5.88;;
39276;SDS011;63149;48.086;-1.606;2023-03-13T08:22:54;39.65;;;6.50;;
39276;SDS011;63149;48.086;-1.606;2023-03-13T08:25:22;35.78;;;7.93;;
39276;SDS011;63149;48.086;-1.606;2023-03-13T08:27:49;31.83;;;6.40;;
39276;SDS011;63149;48.086;-1.606;2023-03-13T08:30:16;41.75;;;6.65;;
39276;SDS011;63149;48.086;-1.606;2023-03-13T08:32:43;40.75;;;6.13;;
39276;SDS011;63149;48.086;-1.606;2023-03-13T08:35:11;35.28;;;6.43;;
39276;SDS011;63149;48.086;-1.606;2023-03-13T08:37:38;36.70;;;6.18;;
39276;SDS011;63149;48.086;-1.606;2023-03-13T08:40:06;46.83;;;6.72;;
39276;SDS011;63149;48.086;-1.606;2023-03-13T08:42:36;33.63;;;6.47;;
39276;SDS011;63149;48.086;-1.606;2023-03-13T08:45:05;43.45;;;8.10;;
39276;SDS011;63149;48.086;-1.606;2023-03-13T08:47:32;32.88;;;6.00;;
39276;SDS011;63149;48.086;-1.606;2023-03-13T08:49:59;33.60;;;5.55;;
39276;SDS011;63149;48.086;-1.606;2023-03-13T08:52:27;30.08;;;5.22;;
39276;SDS011;63149;48.086;-1.606;2023-03-13T08:54:54;27.83;;;4.82;;
39276;SDS011;63149;48.086;-1.606;2023-03-13T08:57:21;33.05;;;5.72;;
39276;SDS011;63149;48.086;-1.606;2023-03-13T08:59:48;25.65;;;7.00;;
39276;SDS011;63149;48.086;-1.606;2023-03-13T09:02:16;20.77;;;4.85;;
39276;SDS011;63149;48.086;-1.606;2023-03-13T09:04:45;36.53;;;7.32;;
39276;SDS011;63149;48.086;-1.606;2023-03-13T09:07:13;31.42;;;6.38;;
39276;SDS011;63149;48.086;-1.606;2023-03-13T09:09:42;40.20;;;6.95;;
39276;SDS011;63149;48.086;-1.606;2023-03-13T09:12:09;32.42;;;5.50;;
39276;SDS011;63149;48.086;-1.606;2023-03-13T09:14:36;25.45;;;5.13;;
39276;SDS011;63149;48.086;-1.606;2023-03-13T09:17:03;23.83;;;4.78;;
39276;SDS011;63149;48.086;-1.606;2023-03-13T09:19:30;30.95;;;4.93;;
39276;SDS011;63149;48.086;-1.606;2023-03-13T09:21:57;34.25;;;4.95;;
39276;SDS011;63149;48.086;-1.606;2023-03-13T09:24:24;41.85;;;6.72;;
39276;SDS011;63149;48.086;-1.606;2023-03-13T09:26:53;26.92;;;4.35;;
39276;SDS011;63149;48.086;-1.606;2023-03-13T09:29:20;36.75;;;4.75;;
39276;SDS011;63149;48.086;-1.606;2023-03-13T09:31:47;32.65;;;6.75;;
39276;SDS011;63149;48.086;-1.606;2023-03-13T09:34:14;34.13;;;7.38;;
39276;SDS011;63149;48.086;-1.606;2023-03-13T09:36:41;27.83;;;5.05;;
39276;SDS011;63149;48.086;-1.606;2023-03-13T09:39:08;27.70;;;4.30;;
39276;SDS011;63149;48.086;-1.606;2023-03-13T09:41:35;26.15;;;5.18;;
39276;SDS011;63149;48.086;-1.606;2023-03-13T09:44:11;25.52;;;4.65;;
39276;SDS011;63149;48.086;-1.606;2023-03-13T09:46:44;35.80;;;6.40;;
39276;SDS011;63149;48.086;-1.606;2023-03-13T09:49:27;26.20;;;5.30;;
39276;SDS011;63149;48.086;-1.606;2023-03-13T09:51:59;36.03;;;5.22;;
39276;SDS011;63149;48.086;-1.606;2023-03-13T09:54:32;34.50;;;5.50;;
39276;SDS011;63149;48.086;-1.606;2023-03-13T09:57:04;25.92;;;4.30;;
39276;SDS011;63149;48.086;-1.606;2023-03-13T09:59:41;30.75;;;4.88;;
39276;SDS011;63149;48.086;-1.606;2023-03-13T10:02:16;30.73;;;4.97;;
39276;SDS011;63149;48.086;-1.606;2023-03-13T10:04:58;24.58;;;5.47;;
39276;SDS011;63149;48.086;-1.606;2023-03-13T10:07:37;30.02;;;4.78;;
39276;SDS011;63149;48.086;-1.606;2023-03-13T10:10:08;27.85;;;4.97;;
39276;SDS011;63149;48.086;-1.606;2023-03-13T10:12:40;34.83;;;5.38;;
39276;SDS011;63149;48.086;-1.606;2023-03-13T10:15:32;22.70;;;4.47;;
39276;SDS011;63149;48.086;-1.606;2023-03-13T10:18:10;26.85;;;5.18;;
39276;SDS011;63149;48.086;-1.606;2023-03-13T10:20:45;17.85;;;4.07;;
39276;SDS011;63149;48.086;-1.606;2023-03-13T10:23:14;26.20;;;4.60;;
39276;SDS011;63149;48.086;-1.606;2023-03-13T10:25:45;36.10;;;5.53;;
39276;SDS011;63149;48.086;-1.606;2023-03-13T10:28:13;29.23;;;5.38;;
39276;SDS011;63149;48.086;-1.606;2023-03-13T10:30:45;28.05;;;5.15;;
39276;SDS011;63149;48.086;-1.606;2023-03-13T10:33:20;21.98;;;5.03;;
39276;SDS011;63149;48.086;-1.606;2023-03-13T10:35:58;20.88;;;4.10;;
39276;SDS011;63149;48.086;-1.606;2023-03-13T10:38:27;21.55;;;4.90;;
39276;SDS011;63149;48.086;-1.606;2023-03-13T10:40:58;25.45;;;4.43;;
39276;SDS011;63149;48.086;-1.606;2023-03-13T10:43:27;25.98;;;4.60;;
39276;SDS011;63149;48.086;-1.606;2023-03-13T10:45:56;24.13;;;4.45;;
39276;SDS011;63149;48.086;-1.606;2023-03-13T10:48:26;21.75;;;5.22;;
39276;SDS011;63149;48.086;-1.606;2023-03-13T10:51:01;32.05;;;4.97;;
39276;SDS011;63149;48.086;-1.606;2023-03-13T10:53:31;30.13;;;5.30;;
39276;SDS011;63149;48.086;-1.606;2023-03-13T10:55:59;27.83;;;5.68;;
39276;SDS011;63149;48.086;-1.606;2023-03-13T10:58:36;29.40;;;4.45;;
39276;SDS011;63149;48.086;-1.606;2023-03-13T11:01:16;23.23;;;4.40;;
39276;SDS011;63149;48.086;-1.606;2023-03-13T11:03:46;26.85;;;4.45;;
39276;SDS011;63149;48.086;-1.606;2023-03-13T11:06:28;30.83;;;5.90;;
39276;SDS011;63149;48.086;-1.606;2023-03-13T11:09:04;18.40;;;4.28;;
39276;SDS011;63149;48.086;-1.606;2023-03-13T11:11:44;27.70;;;5.18;;
39276;SDS011;63149;48.086;-1.606;2023-03-13T11:14:14;33.80;;;5.55;;
39276;SDS011;63149;48.086;-1.606;2023-03-13T11:16:46;25.95;;;5.15;;
39276;SDS011;63149;48.086;-1.606;2023-03-13T11:25:09;26.38;;;5.00;;
39276;SDS011;63149;48.086;-1.606;2023-03-13T11:27:45;30.17;;;6.03;;
39276;SDS011;63149;48.086;-1.606;2023-03-13T11:30:23;26.92;;;5.50;;
39276;SDS011;63149;48.086;-1.606;2023-03-13T11:33:11;26.55;;;4.15;;
39276;SDS011;63149;48.086;-1.606;2023-03-13T11:35:48;31.13;;;4.97;;
39276;SDS011;63149;48.086;-1.606;2023-03-13T11:38:21;24.60;;;5.07;;
39276;SDS011;63149;48.086;-1.606;2023-03-13T11:40:55;20.73;;;4.00;;
39276;SDS011;63149;48.086;-1.606;2023-03-13T11:43:37;22.02;;;4.32;;
39276;SDS011;63149;48.086;-1.606;2023-03-13T11:46:24;20.80;;;4.40;;
39276;SDS011;63149;48.086;-1.606;2023-03-13T11:49:10;25.35;;;4.93;;
39276;SDS011;63149;48.086;-1.606;2023-03-13T11:51:52;29.85;;;4.80;;
39276;SDS011;63149;48.086;-1.606;2023-03-13T11:54:36;27.13;;;6.05;;
39276;SDS011;63149;48.086;-1.606;2023-03-13T11:57:20;22.10;;;4.53;;
39276;SDS011;63149;48.086;-1.606;2023-03-13T11:59:57;19.88;;;4.85;;
39276;SDS011;63149;48.086;-1.606;2023-03-13T12:02:45;18.85;;;4.75;;
39276;SDS011;63149;48.086;-1.606;2023-03-13T12:05:18;18.95;;;4.50;;
39276;SDS011;63149;48.086;-1.606;2023-03-13T12:07:48;20.60;;;3.97;;
39276;SDS011;63149;48.086;-1.606;2023-03-13T12:10:19;16.25;;;4.28;;
39276;SDS011;63149;48.086;-1.606;2023-03-13T12:12:54;16.85;;;4.25;;
39276;SDS011;63149;48.086;-1.606;2023-03-13T12:15:27;21.13;;;4.60;;
39276;SDS011;63149;48.086;-1.606;2023-03-13T12:17:57;22.10;;;4.60;;
39276;SDS011;63149;48.086;-1.606;2023-03-13T12:20:31;19.92;;;4.05;;
39276;SDS011;63149;48.086;-1.606;2023-03-13T12:23:08;20.55;;;3.55;;
39276;SDS011;63149;48.086;-1.606;2023-03-13T12:25:43;29.75;;;5.55;;
39276;SDS011;63149;48.086;-1.606;2023-03-13T12:28:18;27.83;;;4.85;;
39276;SDS011;63149;48.086;-1.606;2023-03-13T12:31:00;26.23;;;5.22;;
39276;SDS011;63149;48.086;-1.606;2023-03-13T12:33:37;28.42;;;4.97;;
39276;SDS011;63149;48.086;-1.606;2023-03-13T12:36:10;25.55;;;4.78;;
39276;SDS011;63149;48.086;-1.606;2023-03-13T12:38:40;24.88;;;4.93;;
39276;SDS011;63149;48.086;-1.606;2023-03-13T12:41:17;26.90;;;5.57;;
39276;SDS011;63149;48.086;-1.606;2023-03-13T12:43:48;21.23;;;4.10;;
39276;SDS011;63149;48.086;-1.606;2023-03-13T12:46:25;18.25;;;3.85;;
39276;SDS011;63149;48.086;-1.606;2023-03-13T12:49:10;21.25;;;4.22;;
39276;SDS011;63149;48.086;-1.606;2023-03-13T12:52:02;21.33;;;3.80;;
39276;SDS011;63149;48.086;-1.606;2023-03-13T12:55:03;24.42;;;4.93;;
39276;SDS011;63149;48.086;-1.606;2023-03-13T12:57:57;19.13;;;3.65;;
39276;SDS011;63149;48.086;-1.606;2023-03-13T13:00:51;19.80;;;4.60;;
39276;SDS011;63149;48.086;-1.606;2023-03-13T13:03:23;21.25;;;4.20;;
39276;SDS011;63149;48.086;-1.606;2023-03-13T13:05:59;26.30;;;4.18;;
39276;SDS011;63149;48.086;-1.606;2023-03-13T13:08:31;27.08;;;4.47;;
39276;SDS011;63149;48.086;-1.606;2023-03-13T13:14:34;23.80;;;4.03;;
39276;SDS011;63149;48.086;-1.606;2023-03-13T13:17:21;22.45;;;3.95;;
39276;SDS011;63149;48.086;-1.606;2023-03-13T13:19:55;19.20;;;4.05;;
39276;SDS011;63149;48.086;-1.606;2023-03-13T13:25:28;18.40;;;3.92;;
39276;SDS011;63149;48.086;-1.606;2023-03-13T13:28:10;23.83;;;4.32;;
39276;SDS011;63149;48.086;-1.606;2023-03-13T13:30:50;16.90;;;3.53;;
39276;SDS011;63149;48.086;-1.606;2023-03-13T13:36:26;25.30;;;4.47;;
39276;SDS011;63149;48.086;-1.606;2023-03-13T13:39:20;23.23;;;4.28;;
39276;SDS011;63149;48.086;-1.606;2023-03-13T13:41:56;28.97;;;5.43;;
39276;SDS011;63149;48.086;-1.606;2023-03-13T13:44:25;23.42;;;4.07;;
39276;SDS011;63149;48.086;-1.606;2023-03-13T13:46:54;27.08;;;3.67;;
39276;SDS011;63149;48.086;-1.606;2023-03-13T13:49:26;23.98;;;4.20;;
39276;SDS011;63149;48.086;-1.606;2023-03-13T13:55:00;31.13;;;5.70;;
39276;SDS011;63149;48.086;-1.606;2023-03-13T13:57:28;27.13;;;4.65;;
39276;SDS011;63149;48.086;-1.606;2023-03-13T13:59:59;28.05;;;5.35;;
39276;SDS011;63149;48.086;-1.606;2023-03-13T14:02:33;26.80;;;4.32;;
39276;SDS011;63149;48.086;-1.606;2023-03-13T14:05:05;31.90;;;4.53;;
39276;SDS011;63149;48.086;-1.606;2023-03-13T14:07:41;30.70;;;5.78;;
39276;SDS011;63149;48.086;-1.606;2023-03-13T14:12:59;29.58;;;4.05;;
39276;SDS011;63149;48.086;-1.606;2023-03-13T14:15:27;25.67;;;5.35;;
39276;SDS011;63149;48.086;-1.606;2023-03-13T14:17:56;28.33;;;5.18;;
39276;SDS011;63149;48.086;-1.606;2023-03-13T14:20:28;19.40;;;3.97;;
39276;SDS011;63149;48.086;-1.606;2023-03-13T14:22:58;29.33;;;4.78;;
39276;SDS011;63149;48.086;-1.606;2023-03-13T14:25:27;27.73;;;4.63;;
39276;SDS011;63149;48.086;-1.606;2023-03-13T14:28:14;26.35;;;4.75;;
39276;SDS011;63149;48.086;-1.606;2023-03-13T14:30:45;25.45;;;5.07;;
39276;SDS011;63149;48.086;-1.606;2023-03-13T14:33:12;28.17;;;5.20;;
39276;SDS011;63149;48.086;-1.606;2023-03-13T14:35:41;42.13;;;5.43;;
39276;SDS011;63149;48.086;-1.606;2023-03-13T14:38:14;26.13;;;4.28;;
39276;SDS011;63149;48.086;-1.606;2023-03-13T14:40:42;25.52;;;4.85;;
39276;SDS011;63149;48.086;-1.606;2023-03-13T14:43:16;27.30;;;4.50;;
39276;SDS011;63149;48.086;-1.606;2023-03-13T14:45:46;31.13;;;4.50;;
39276;SDS011;63149;48.086;-1.606;2023-03-13T14:48:16;30.67;;;5.07;;
39276;SDS011;63149;48.086;-1.606;2023-03-13T14:50:49;32.70;;;4.88;;
39276;SDS011;63149;48.086;-1.606;2023-03-13T14:53:26;25.25;;;4.95;;
39276;SDS011;63149;48.086;-1.606;2023-03-13T14:56:08;27.75;;;4.70;;
39276;SDS011;63149;48.086;-1.606;2023-03-13T14:58:36;36.72;;;4.80;;
39276;SDS011;63149;48.086;-1.606;2023-03-13T15:01:11;29.63;;;4.13;;
39276;SDS011;63149;48.086;-1.606;2023-03-13T15:03:42;32.97;;;4.63;;
39276;SDS011;63149;48.086;-1.606;2023-03-13T15:06:18;29.35;;;4.53;;
39276;SDS011;63149;48.086;-1.606;2023-03-13T15:08:47;35.40;;;6.32;;
39276;SDS011;63149;48.086;-1.606;2023-03-13T15:11:32;32.75;;;4.60;;
39276;SDS011;63149;48.086;-1.606;2023-03-13T15:14:00;32.20;;;5.63;;
39276;SDS011;63149;48.086;-1.606;2023-03-13T15:16:27;33.78;;;5.25;;
39276;SDS011;63149;48.086;-1.606;2023-03-13T15:18:54;34.47;;;5.63;;
39276;SDS011;63149;48.086;-1.606;2023-03-13T15:21:24;23.02;;;4.03;;
39276;SDS011;63149;48.086;-1.606;2023-03-13T15:23:54;28.23;;;5.40;;
39276;SDS011;63149;48.086;-1.606;2023-03-13T15:26:25;33.05;;;5.55;;
39276;SDS011;63149;48.086;-1.606;2023-03-13T15:28:52;25.33;;;4.57;;
39276;SDS011;63149;48.086;-1.606;2023-03-13T15:31:19;32.97;;;4.95;;
39276;SDS011;63149;48.086;-1.606;2023-03-13T15:33:53;31.77;;;4.78;;
39276;SDS011;63149;48.086;-1.606;2023-03-13T15:36:22;30.35;;;4.63;;
39276;SDS011;63149;48.086;-1.606;2023-03-13T15:38:50;25.60;;;4.75;;
39276;SDS011;63149;48.086;-1.606;2023-03-13T15:41:17;23.55;;;4.85;;
39276;SDS011;63149;48.086;-1.606;2023-03-13T15:43:44;23.88;;;5.15;;
39276;SDS011;63149;48.086;-1.606;2023-03-13T15:46:11;35.15;;;5.68;;
39276;SDS011;63149;48.086;-1.606;2023-03-13T15:48:39;28.75;;;5.07;;
39276;SDS011;63149;48.086;-1.606;2023-03-13T15:51:08;28.48;;;4.47;;
39276;SDS011;63149;48.086;-1.606;2023-03-13T15:53:39;31.20;;;5.20;;
39276;SDS011;63149;48.086;-1.606;2023-03-13T15:56:10;30.73;;;4.75;;
39276;SDS011;63149;48.086;-1.606;2023-03-13T15:58:40;36.38;;;4.63;;
39276;SDS011;63149;48.086;-1.606;2023-03-13T16:01:08;31.60;;;4.70;;
39276;SDS011;63149;48.086;-1.606;2023-03-13T16:03:36;38.45;;;5.65;;
39276;SDS011;63149;48.086;-1.606;2023-03-13T16:06:05;35.70;;;6.13;;
39276;SDS011;63149;48.086;-1.606;2023-03-13T16:08:40;28.77;;;6.03;;
39276;SDS011;63149;48.086;-1.606;2023-03-13T16:11:07;29.02;;;5.80;;
39276;SDS011;63149;48.086;-1.606;2023-03-13T16:13:35;39.28;;;4.95;;
39276;SDS011;63149;48.086;-1.606;2023-03-13T16:16:04;34.17;;;5.60;;
39276;SDS011;63149;48.086;-1.606;2023-03-13T16:18:41;27.45;;;5.18;;
39276;SDS011;63149;48.086;-1.606;2023-03-13T16:21:17;34.17;;;4.50;;
39276;SDS011;63149;48.086;-1.606;2023-03-13T16:23:47;32.88;;;5.47;;
39276;SDS011;63149;48.086;-1.606;2023-03-13T16:26:15;31.95;;;5.03;;
39276;SDS011;63149;48.086;-1.606;2023-03-13T16:28:43;36.38;;;5.13;;
39276;SDS011;63149;48.086;-1.606;2023-03-13T16:31:16;29.88;;;4.97;;
39276;SDS011;63149;48.086;-1.606;2023-03-13T16:33:44;32.17;;;4.63;;
39276;SDS011;63149;48.086;-1.606;2023-03-13T16:36:15;30.77;;;5.22;;
39276;SDS011;63149;48.086;-1.606;2023-03-13T16:38:43;30.58;;;4.88;;
39276;SDS011;63149;48.086;-1.606;2023-03-13T16:41:15;27.83;;;4.75;;
39276;SDS011;63149;48.086;-1.606;2023-03-13T16:43:43;25.85;;;4.50;;
39276;SDS011;63149;48.086;-1.606;2023-03-13T16:46:14;28.02;;;5.30;;
39276;SDS011;63149;48.086;-1.606;2023-03-13T16:48:42;27.58;;;4.40;;
39276;SDS011;63149;48.086;-1.606;2023-03-13T16:51:14;32.13;;;4.57;;
39276;SDS011;63149;48.086;-1.606;2023-03-13T16:53:43;22.70;;;4.80;;
39276;SDS011;63149;48.086;-1.606;2023-03-13T16:56:18;27.77;;;4.20;;
39276;SDS011;63149;48.086;-1.606;2023-03-13T16:58:48;39.28;;;4.45;;
39276;SDS011;63149;48.086;-1.606;2023-03-13T17:01:15;36.10;;;5.50;;
39276;SDS011;63149;48.086;-1.606;2023-03-13T17:03:42;31.10;;;4.82;;
39276;SDS011;63149;48.086;-1.606;2023-03-13T17:06:12;32.42;;;4.28;;
39276;SDS011;63149;48.086;-1.606;2023-03-13T17:08:42;30.23;;;5.50;;
39276;SDS011;63149;48.086;-1.606;2023-03-13T17:11:10;26.52;;;3.92;;
39276;SDS011;63149;48.086;-1.606;2023-03-13T17:13:41;15.27;;;2.72;;
39276;SDS011;63149;48.086;-1.606;2023-03-13T17:16:10;15.82;;;2.55;;
39276;SDS011;63149;48.086;-1.606;2023-03-13T17:18:39;11.13;;;1.98;;
39276;SDS011;63149;48.086;-1.606;2023-03-13T17:21:10;14.73;;;2.70;;
39276;SDS011;63149;48.086;-1.606;2023-03-13T17:23:38;18.88;;;2.67;;
39276;SDS011;63149;48.086;-1.606;2023-03-13T17:26:17;21.70;;;3.10;;
39276;SDS011;63149;48.086;-1.606;2023-03-13T17:28:48;19.85;;;2.90;;
39276;SDS011;63149;48.086;-1.606;2023-03-13T17:31:16;20.15;;;3.85;;
39276;SDS011;63149;48.086;-1.606;2023-03-13T17:33:44;30.52;;;4.00;;
39276;SDS011;63149;48.086;-1.606;2023-03-13T17:36:13;22.73;;;3.33;;
39276;SDS011;63149;48.086;-1.606;2023-03-13T17:38:41;22.95;;;3.95;;
39276;SDS011;63149;48.086;-1.606;2023-03-13T17:41:09;19.70;;;3.53;;
39276;SDS011;63149;48.086;-1.606;2023-03-13T17:43:37;21.83;;;3.10;;
39276;SDS011;63149;48.086;-1.606;2023-03-13T17:46:09;26.90;;;4.15;;
39276;SDS011;63149;48.086;-1.606;2023-03-13T17:48:40;29.55;;;4.40;;
39276;SDS011;63149;48.086;-1.606;2023-03-13T17:51:10;26.58;;;4.50;;
39276;SDS011;63149;48.086;-1.606;2023-03-13T17:53:43;36.92;;;4.95;;
39276;SDS011;63149;48.086;-1.606;2023-03-13T17:56:11;34.50;;;5.13;;
39276;SDS011;63149;48.086;-1.606;2023-03-13T17:58:39;30.92;;;5.15;;
39276;SDS011;63149;48.086;-1.606;2023-03-13T18:01:08;35.78;;;5.40;;
39276;SDS011;63149;48.086;-1.606;2023-03-13T18:03:39;28.92;;;4.68;;
39276;SDS011;63149;48.086;-1.606;2023-03-13T18:06:10;27.58;;;4.55;;
39276;SDS011;63149;48.086;-1.606;2023-03-13T18:08:46;34.08;;;6.03;;
39276;SDS011;63149;48.086;-1.606;2023-03-13T18:11:14;35.15;;;6.68;;
39276;SDS011;63149;48.086;-1.606;2023-03-13T18:13:41;34.63;;;5.47;;
39276;SDS011;63149;48.086;-1.606;2023-03-13T18:16:21;27.65;;;4.95;;
39276;SDS011;63149;48.086;-1.606;2023-03-13T18:18:50;31.27;;;4.35;;
39276;SDS011;63149;48.086;-1.606;2023-03-13T18:21:18;37.67;;;4.25;;
39276;SDS011;63149;48.086;-1.606;2023-03-13T18:23:45;41.53;;;5.60;;
39276;SDS011;63149;48.086;-1.606;2023-03-13T18:26:15;31.50;;;4.07;;
39276;SDS011;63149;48.086;-1.606;2023-03-13T18:28:46;38.97;;;4.38;;
39276;SDS011;63149;48.086;-1.606;2023-03-13T18:31:13;38.00;;;4.75;;
39276;SDS011;63149;48.086;-1.606;2023-03-13T18:33:41;37.10;;;5.63;;
39276;SDS011;63149;48.086;-1.606;2023-03-13T18:36:12;38.97;;;4.78;;
39276;SDS011;63149;48.086;-1.606;2023-03-13T18:38:41;35.40;;;5.38;;
39276;SDS011;63149;48.086;-1.606;2023-03-13T18:41:09;35.75;;;6.00;;
39276;SDS011;63149;48.086;-1.606;2023-03-13T18:43:36;38.25;;;5.65;;
39276;SDS011;63149;48.086;-1.606;2023-03-13T18:46:03;45.13;;;6.80;;
39276;SDS011;63149;48.086;-1.606;2023-03-13T18:48:30;41.75;;;5.65;;
39276;SDS011;63149;48.086;-1.606;2023-03-13T18:50:58;43.35;;;6.68;;
39276;SDS011;63149;48.086;-1.606;2023-03-13T18:53:25;25.45;;;4.47;;
39276;SDS011;63149;48.086;-1.606;2023-03-13T18:55:52;21.58;;;4.90;;
39276;SDS011;63149;48.086;-1.606;2023-03-13T18:58:19;37.35;;;4.75;;
39276;SDS011;63149;48.086;-1.606;2023-03-13T19:00:46;37.25;;;5.95;;
39276;SDS011;63149;48.086;-1.606;2023-03-13T19:03:13;48.78;;;6.57;;
39276;SDS011;63149;48.086;-1.606;2023-03-13T19:05:44;46.95;;;7.22;;
39276;SDS011;63149;48.086;-1.606;2023-03-13T19:08:12;33.13;;;5.15;;
39276;SDS011;63149;48.086;-1.606;2023-03-13T19:10:39;42.25;;;7.82;;
39276;SDS011;63149;48.086;-1.606;2023-03-13T19:13:06;54.75;;;6.70;;
39276;SDS011;63149;48.086;-1.606;2023-03-13T19:15:33;48.10;;;6.40;;
39276;SDS011;63149;48.086;-1.606;2023-03-13T19:18:01;32.55;;;5.75;;
39276;SDS011;63149;48.086;-1.606;2023-03-13T19:20:28;48.22;;;7.20;;
39276;SDS011;63149;48.086;-1.606;2023-03-13T19:22:55;59.25;;;8.05;;
39276;SDS011;63149;48.086;-1.606;2023-03-13T19:25:26;39.75;;;5.47;;
39276;SDS011;63149;48.086;-1.606;2023-03-13T19:27:53;36.53;;;5.82;;
39276;SDS011;63149;48.086;-1.606;2023-03-13T19:30:21;28.98;;;5.30;;
39276;SDS011;63149;48.086;-1.606;2023-03-13T19:32:49;35.75;;;4.45;;
39276;SDS011;63149;48.086;-1.606;2023-03-13T19:35:16;37.60;;;5.70;;
39276;SDS011;63149;48.086;-1.606;2023-03-13T19:37:45;40.33;;;6.25;;
39276;SDS011;63149;48.086;-1.606;2023-03-13T19:40:15;33.47;;;5.72;;
39276;SDS011;63149;48.086;-1.606;2023-03-13T19:42:45;35.55;;;6.40;;
39276;SDS011;63149;48.086;-1.606;2023-03-13T19:45:12;37.30;;;5.05;;
39276;SDS011;63149;48.086;-1.606;2023-03-13T19:47:41;36.30;;;6.07;;
39276;SDS011;63149;48.086;-1.606;2023-03-13T19:50:11;25.50;;;4.57;;
39276;SDS011;63149;48.086;-1.606;2023-03-13T19:52:42;28.60;;;4.35;;
39276;SDS011;63149;48.086;-1.606;2023-03-13T19:55:10;40.47;;;4.97;;
39276;SDS011;63149;48.086;-1.606;2023-03-13T19:57:37;34.05;;;4.95;;
39276;SDS011;63149;48.086;-1.606;2023-03-13T20:00:06;20.50;;;3.67;;
39276;SDS011;63149;48.086;-1.606;2023-03-13T20:02:38;30.38;;;4.60;;
39276;SDS011;63149;48.086;-1.606;2023-03-13T20:05:05;28.67;;;4.10;;
39276;SDS011;63149;48.086;-1.606;2023-03-13T20:07:33;32.45;;;4.10;;
39276;SDS011;63149;48.086;-1.606;2023-03-13T20:10:00;26.23;;;3.70;;
39276;SDS011;63149;48.086;-1.606;2023-03-13T20:12:27;29.10;;;5.18;;
39276;SDS011;63149;48.086;-1.606;2023-03-13T20:14:54;27.55;;;3.15;;
39276;SDS011;63149;48.086;-1.606;2023-03-13T20:17:22;34.08;;;4.03;;
39276;SDS011;63149;48.086;-1.606;2023-03-13T20:19:49;31.10;;;5.35;;
39276;SDS011;63149;48.086;-1.606;2023-03-13T20:22:16;25.70;;;4.18;;
39276;SDS011;63149;48.086;-1.606;2023-03-13T20:24:43;22.48;;;3.42;;
39276;SDS011;63149;48.086;-1.606;2023-03-13T20:27:10;26.48;;;3.33;;
39276;SDS011;63149;48.086;-1.606;2023-03-13T20:29:37;31.85;;;4.57;;
39276;SDS011;63149;48.086;-1.606;2023-03-13T20:32:05;31.35;;;4.47;;
39276;SDS011;63149;48.086;-1.606;2023-03-13T20:34:33;26.50;;;4.38;;
39276;SDS011;63149;48.086;-1.606;2023-03-13T20:37:00;26.35;;;3.95;;
39276;SDS011;63149;48.086;-1.606;2023-03-13T20:39:28;24.88;;;3.88;;
39276;SDS011;63149;48.086;-1.606;2023-03-13T20:41:55;25.85;;;3.78;;
39276;SDS011;63149;48.086;-1.606;2023-03-13T20:44:24;29.23;;;3.83;;
39276;SDS011;63149;48.086;-1.606;2023-03-13T20:46:51;22.83;;;3.45;;
39276;SDS011;63149;48.086;-1.606;2023-03-13T20:49:18;29.98;;;3.60;;
39276;SDS011;63149;48.086;-1.606;2023-03-13T20:51:46;29.05;;;3.72;;
39276;SDS011;63149;48.086;-1.606;2023-03-13T20:54:13;25.33;;;4.30;;
39276;SDS011;63149;48.086;-1.606;2023-03-13T20:56:40;25.30;;;3.85;;
39276;SDS011;63149;48.086;-1.606;2023-03-13T20:59:07;24.58;;;4.20;;
39276;SDS011;63149;48.086;-1.606;2023-03-13T21:01:34;26.85;;;4.43;;
39276;SDS011;63149;48.086;-1.606;2023-03-13T21:04:00;24.88;;;4.28;;
39276;SDS011;63149;48.086;-1.606;2023-03-13T21:06:28;32.35;;;4.25;;